Time;durP1;ratioP1;P1;durP2;ratioP2;P2;SDS_P1;SDS_P2;PMS_P1;PMS_P2;Temp;Humidity;BMP_temperature;BMP_pressure;BME280_temperature;BME280_humidity;BME280_pressure;Samples;Min_cycle;Max_cycle;Signal;HPM_P1;HPM_P2
2021/09/08 00:01:20;;;;;;;;;;;14.90;99.90;;;;;;5072943;28;19908;-69
2021/09/08 00:03:46;;;;;;;;;;;14.90;99.90;;;;;;5072794;28;19908;-69
2021/09/08 00:06:13;;;;;;;;;;;15.00;99.90;;;;;;5072354;28;19915;-69
2021/09/08 00:08:40;;;;;;;;;;;15.10;99.90;;;;;;5072851;28;19991;-69
2021/09/08 00:11:06;;;;;;;;;;;15.20;99.90;;;;;;5072915;28;19908;-69
2021/09/08 00:13:33;;;;;;;;;;;15.20;99.90;;;;;;5072711;28;19960;-70
2021/09/08 00:16:00;;;;;;;;;;;15.30;99.90;;;;;;5072863;28;19913;-68
2021/09/08 00:18:26;;;;;;;;;;;15.30;99.90;;;;;;5072862;28;19931;-69
2021/09/08 00:20:53;;;;;;;;;;;15.30;99.90;;;;;;5072525;28;19908;-69
2021/09/08 00:23:20;;;;;;;;;;;15.30;99.90;;;;;;5071475;28;20340;-70
2021/09/08 00:25:46;;;;;;;;;;;15.40;99.90;;;;;;5072332;28;19950;-70
2021/09/08 00:28:13;;;;;;;;;;;15.70;99.90;;;;;;5072585;28;19915;-69
2021/09/08 00:30:40;;;;;;;;;;;15.80;99.90;;;;;;5072673;28;19908;-69
2021/09/08 00:33:06;;;;;;;;;;;16.30;99.90;;;;;;5072704;28;19923;-69
2021/09/08 00:35:33;;;;;;;;;;;16.40;99.90;;;;;;5072273;28;19908;-69
2021/09/08 00:38:00;;;;;;;;;;;16.60;99.90;;;;;;5072538;28;19915;-69
2021/09/08 00:40:26;;;;;;;;;;;16.70;99.90;;;;;;5072493;28;19969;-69
2021/09/08 00:42:53;;;;;;;;;;;16.70;99.90;;;;;;5072609;28;19944;-69
2021/09/08 00:45:19;;;;;;;;;;;16.80;99.90;;;;;;5072130;28;19912;-68
2021/09/08 00:47:48;;;;;;;;;;;16.80;99.90;;;;;;5072151;28;19924;-69
2021/09/08 00:50:14;;;;;;;;;;;16.70;99.90;;;;;;5072180;28;19966;-70
2021/09/08 00:52:42;;;;;;;;;;;16.70;99.90;;;;;;5072458;28;19916;-69
2021/09/08 00:55:10;;;;;;;;;;;16.60;99.90;;;;;;5072404;28;19909;-69
2021/09/08 00:57:37;;;;;;;;;;;16.70;99.90;;;;;;5072457;28;19955;-69
2021/09/08 01:00:04;;;;;;;;;;;16.90;99.90;;;;;;5078465;28;20278;-70
2021/09/08 01:02:31;;;;;;;;;;;17.00;99.90;;;;;;5092317;28;19912;-69
2021/09/08 01:04:58;;;;;;;;;;;17.20;99.90;;;;;;5092161;28;20279;-70
2021/09/08 01:07:24;;;;;;;;;;;17.30;99.90;;;;;;5091986;28;20247;-69
2021/09/08 01:09:51;;;;;;;;;;;17.40;99.90;;;;;;5092022;28;19934;-70
2021/09/08 01:12:18;;;;;;;;;;;17.70;99.60;;;;;;5096124;28;19913;-69
2021/09/08 01:14:45;;;;;;;;;;;18.00;99.10;;;;;;5096651;28;19919;-69
2021/09/08 01:17:12;;;;;;;;;;;18.20;98.90;;;;;;5096688;28;19912;-67
2021/09/08 01:19:38;;;;;;;;;;;18.40;98.20;;;;;;5096122;28;19908;-69
2021/09/08 01:22:05;;;;;;;;;;;19.10;97.60;;;;;;5095132;28;20373;-69
2021/09/08 01:24:32;;;;;;;;;;;19.70;96.30;;;;;;5096180;28;19912;-68
2021/09/08 01:26:59;;;;;;;;;;;19.70;96.10;;;;;;5096336;28;19908;-68
2021/09/08 01:29:26;;;;;;;;;;;20.30;95.40;;;;;;5096240;28;19923;-69
2021/09/08 01:31:54;;;;;;;;;;;20.50;94.50;;;;;;5095805;28;19912;-69
2021/09/08 01:34:21;;;;;;;;;;;20.00;93.50;;;;;;5096042;28;19912;-69
2021/09/08 01:36:48;;;;;;;;;;;19.40;94.70;;;;;;5096073;28;19920;-70
2021/09/08 01:39:19;;;;;;;;;;;19.20;94.50;;;;;;5096031;28;20313;-69
2021/09/08 01:41:46;;;;;;;;;;;19.10;94.40;;;;;;5095762;28;19908;-69
2021/09/08 01:44:16;;;;;;;;;;;19.10;93.90;;;;;;5095769;28;19908;-69
2021/09/08 01:46:43;;;;;;;;;;;19.10;93.80;;;;;;5095673;28;20345;-69
2021/09/08 01:49:10;;;;;;;;;;;19.20;93.50;;;;;;5095941;28;19962;-68
2021/09/08 01:51:36;;;;;;;;;;;19.10;93.90;;;;;;5095006;28;19908;-69
2021/09/08 01:54:03;;;;;;;;;;;18.90;93.20;;;;;;5095675;28;20006;-68
2021/09/08 01:56:29;;;;;;;;;;;19.00;93.60;;;;;;5094434;28;19931;-68
2021/09/08 01:58:56;;;;;;;;;;;19.00;93.60;;;;;;5095598;28;20268;-68
2021/09/08 02:01:25;;;;;;;;;;;18.90;95.00;;;;;;5095666;28;19957;-68
2021/09/08 02:03:55;;;;;;;;;;;18.70;96.00;;;;;;5095597;28;19957;-68
2021/09/08 02:06:25;;;;;;;;;;;18.60;97.00;;;;;;5095518;28;19976;-69
2021/09/08 02:08:53;;;;;;;;;;;18.50;97.30;;;;;;5095597;28;19957;-69
2021/09/08 02:11:20;;;;;;;;;;;18.80;97.60;;;;;;5095391;28;19908;-69
2021/09/08 02:13:47;;;;;;;;;;;18.80;96.70;;;;;;5095020;28;19916;-68
2021/09/08 02:16:15;;;;;;;;;;;18.70;96.80;;;;;;5095400;28;20375;-68
2021/09/08 02:18:42;;;;;;;;;;;18.50;97.70;;;;;;5095297;28;19927;-68
2021/09/08 02:21:09;;;;;;;;;;;18.60;97.80;;;;;;5095199;28;19915;-68
2021/09/08 02:23:36;;;;;;;;;;;18.60;97.60;;;;;;5094160;28;19912;-68
2021/09/08 02:26:03;;;;;;;;;;;18.50;97.60;;;;;;5093853;28;19943;-70
2021/09/08 02:28:30;;;;;;;;;;;18.60;97.70;;;;;;5095280;28;19915;-69
2021/09/08 02:30:56;;;;;;;;;;;18.70;97.50;;;;;;5095602;28;20309;-69
2021/09/08 02:33:23;;;;;;;;;;;18.70;98.00;;;;;;5094972;28;19923;-69
2021/09/08 02:35:50;;;;;;;;;;;18.70;97.70;;;;;;5094730;28;19912;-69
2021/09/08 02:38:17;;;;;;;;;;;18.70;98.10;;;;;;5095058;28;19908;-68
2021/09/08 02:40:43;;;;;;;;;;;18.80;97.30;;;;;;5095041;28;19908;-69
2021/09/08 02:43:10;;;;;;;;;;;18.90;98.10;;;;;;5094772;28;19912;-68
2021/09/08 02:45:37;;;;;;;;;;;19.00;98.10;;;;;;5094314;28;19916;-69
2021/09/08 02:48:03;;;;;;;;;;;18.70;98.30;;;;;;5095019;28;20015;-69
2021/09/08 02:50:30;;;;;;;;;;;18.60;98.60;;;;;;5094660;28;19908;-69
2021/09/08 02:52:57;;;;;;;;;;;18.60;98.80;;;;;;5094617;28;20274;-70
2021/09/08 02:55:23;;;;;;;;;;;18.60;98.70;;;;;;5094539;28;20355;-69
2021/09/08 02:57:50;;;;;;;;;;;18.70;98.70;;;;;;5094263;28;19912;-69
2021/09/08 03:00:17;;;;;;;;;;;18.70;98.80;;;;;;5094575;28;19912;-69
2021/09/08 03:02:44;;;;;;;;;;;18.70;98.60;;;;;;5094391;28;20354;-69
2021/09/08 03:05:10;;;;;;;;;;;18.60;99.50;;;;;;5094309;28;19919;-69
2021/09/08 03:07:37;;;;;;;;;;;18.70;99.50;;;;;;5094245;28;20015;-69
2021/09/08 03:10:04;;;;;;;;;;;18.80;99.60;;;;;;5094444;28;19934;-69
2021/09/08 03:12:31;;;;;;;;;;;18.70;99.50;;;;;;5094236;28;19916;-69
2021/09/08 03:14:58;;;;;;;;;;;18.60;99.80;;;;;;5094224;28;19908;-69
2021/09/08 03:17:24;;;;;;;;;;;18.50;99.90;;;;;;5094124;28;19908;-69
2021/09/08 03:19:51;;;;;;;;;;;18.40;99.90;;;;;;5093671;28;19998;-69
2021/09/08 03:22:17;;;;;;;;;;;18.40;99.90;;;;;;5094034;28;19908;-69
2021/09/08 03:24:44;;;;;;;;;;;18.60;99.90;;;;;;5094035;28;19908;-69
2021/09/08 03:27:11;;;;;;;;;;;18.70;99.90;;;;;;5094038;28;19944;-69
2021/09/08 03:29:37;;;;;;;;;;;18.60;99.90;;;;;;5093799;28;19908;-70
2021/09/08 03:32:04;;;;;;;;;;;18.60;99.90;;;;;;5093755;28;20310;-70
2021/09/08 03:34:31;;;;;;;;;;;18.60;99.90;;;;;;5093512;28;19912;-69
2021/09/08 03:36:57;;;;;;;;;;;18.50;99.90;;;;;;5093775;28;19908;-70
2021/09/08 03:39:24;;;;;;;;;;;18.50;99.90;;;;;;5093903;28;19970;-69
2021/09/08 03:41:51;;;;;;;;;;;18.50;99.90;;;;;;5093366;28;19935;-70
2021/09/08 03:44:17;;;;;;;;;;;18.40;99.90;;;;;;5093658;28;20377;-70
2021/09/08 03:46:44;;;;;;;;;;;18.50;99.90;;;;;;5093325;28;20014;-67
2021/09/08 03:49:10;;;;;;;;;;;18.60;99.90;;;;;;5093441;28;19916;-69
2021/09/08 03:51:37;;;;;;;;;;;18.60;99.90;;;;;;5093192;28;19916;-69
2021/09/08 03:54:04;;;;;;;;;;;18.50;99.90;;;;;;5093317;28;19923;-69
2021/09/08 03:56:30;;;;;;;;;;;18.60;99.90;;;;;;5093405;28;20263;-69
2021/09/08 03:58:57;;;;;;;;;;;18.50;99.90;;;;;;5093250;28;19995;-69
2021/09/08 04:01:24;;;;;;;;;;;18.50;99.90;;;;;;5093329;28;20270;-69
2021/09/08 04:03:50;;;;;;;;;;;18.60;99.90;;;;;;5092917;28;19912;-69
2021/09/08 04:06:19;;;;;;;;;;;18.70;99.90;;;;;;5093408;28;19995;-69
2021/09/08 04:08:46;;;;;;;;;;;18.70;99.90;;;;;;5093339;28;19909;-69
2021/09/08 04:11:12;;;;;;;;;;;18.70;99.90;;;;;;5093123;28;19948;-69
2021/09/08 04:13:39;;;;;;;;;;;18.60;99.90;;;;;;5092867;28;20022;-69
2021/09/08 04:16:06;;;;;;;;;;;18.60;99.90;;;;;;5093208;28;19908;-69
2021/09/08 04:18:32;;;;;;;;;;;18.70;99.90;;;;;;5092779;28;19916;-69
2021/09/08 04:20:59;;;;;;;;;;;18.70;99.90;;;;;;5093024;28;19983;-69
2021/09/08 04:23:26;;;;;;;;;;;18.60;99.90;;;;;;5093046;28;19908;-70
2021/09/08 04:25:52;;;;;;;;;;;18.70;99.90;;;;;;5092589;28;19916;-69
2021/09/08 04:28:19;;;;;;;;;;;18.80;99.50;;;;;;5093040;28;20320;-70
2021/09/08 04:30:45;;;;;;;;;;;18.80;99.60;;;;;;5092837;28;19908;-70
2021/09/08 04:33:12;;;;;;;;;;;18.70;99.30;;;;;;5092653;28;19923;-68
2021/09/08 04:35:40;;;;;;;;;;;18.60;99.70;;;;;;5092450;28;19914;-68
2021/09/08 04:38:06;;;;;;;;;;;18.70;99.80;;;;;;5092840;28;19974;-68
2021/09/08 04:40:33;;;;;;;;;;;18.70;99.90;;;;;;5092716;28;19908;-68
2021/09/08 04:43:02;;;;;;;;;;;18.60;99.90;;;;;;5092480;28;19935;-68
2021/09/08 04:45:28;;;;;;;;;;;18.60;99.90;;;;;;5092144;28;20366;-68
2021/09/08 04:47:55;;;;;;;;;;;18.60;99.90;;;;;;5097099;28;19981;-68
2021/09/08 04:50:22;;;;;;;;;;;18.60;99.90;;;;;;5112121;28;19914;-68
2021/09/08 04:52:48;;;;;;;;;;;18.50;99.90;;;;;;5112366;28;20018;-68
2021/09/08 04:55:15;;;;;;;;;;;18.60;99.90;;;;;;5112829;28;20342;-68
2021/09/08 04:57:41;;;;;;;;;;;18.50;99.90;;;;;;5112326;28;19933;-69
2021/09/08 05:00:08;;;;;;;;;;;18.40;99.90;;;;;;5112832;28;19908;-68
2021/09/08 05:02:38;;;;;;;;;;;18.40;99.90;;;;;;5112775;28;19930;-69
2021/09/08 05:05:05;;;;;;;;;;;18.40;99.90;;;;;;5112747;28;20328;-68
2021/09/08 05:07:31;;;;;;;;;;;18.40;99.90;;;;;;5112608;28;20409;-68
2021/09/08 05:09:58;;;;;;;;;;;18.40;99.90;;;;;;5112950;28;19975;-68
2021/09/08 05:12:25;;;;;;;;;;;18.50;99.90;;;;;;5112809;28;19962;-68
2021/09/08 05:14:51;;;;;;;;;;;18.50;99.90;;;;;;5112807;28;20401;-68
2021/09/08 05:17:18;;;;;;;;;;;18.40;99.90;;;;;;5112846;28;19919;-68
2021/09/08 05:19:44;;;;;;;;;;;18.30;99.90;;;;;;5112462;28;19908;-69
2021/09/08 05:22:11;;;;;;;;;;;18.30;99.90;;;;;;5112663;28;20393;-68
2021/09/08 05:24:38;;;;;;;;;;;18.20;99.90;;;;;;5112758;28;20358;-68
2021/09/08 05:27:04;;;;;;;;;;;18.20;99.90;;;;;;5112481;28;20004;-69
2021/09/08 05:29:31;;;;;;;;;;;18.20;99.90;;;;;;5112438;28;19973;-68
2021/09/08 05:31:58;;;;;;;;;;;18.40;99.90;;;;;;5112686;28;19915;-69
2021/09/08 05:34:24;;;;;;;;;;;18.30;99.90;;;;;;5112481;28;19965;-68
2021/09/08 05:36:51;;;;;;;;;;;18.30;99.90;;;;;;5112434;28;20480;-69
2021/09/08 05:39:18;;;;;;;;;;;18.40;99.90;;;;;;5112411;28;19998;-69
2021/09/08 05:41:44;;;;;;;;;;;18.40;99.90;;;;;;5112295;28;19908;-69
2021/09/08 05:44:11;;;;;;;;;;;18.40;99.90;;;;;;5112307;28;19918;-68
2021/09/08 05:46:38;;;;;;;;;;;18.40;99.90;;;;;;5112387;28;19965;-68
2021/09/08 05:49:04;;;;;;;;;;;18.40;99.90;;;;;;5112617;28;20328;-68
2021/09/08 05:51:31;;;;;;;;;;;18.40;99.90;;;;;;5111160;28;19908;-68
2021/09/08 05:53:58;;;;;;;;;;;18.30;99.90;;;;;;5112265;28;19923;-67
2021/09/08 05:56:24;;;;;;;;;;;18.30;99.90;;;;;;5112316;28;19950;-69
2021/09/08 05:58:51;;;;;;;;;;;18.30;99.90;;;;;;5115424;28;19908;-69
2021/09/08 06:01:18;;;;;;;;;;;18.30;99.90;;;;;;5116016;28;20350;-68
2021/09/08 06:03:44;;;;;;;;;;;18.20;99.90;;;;;;5115737;28;19955;-69
2021/09/08 06:06:11;;;;;;;;;;;18.10;99.90;;;;;;5115940;28;20278;-68
2021/09/08 06:08:37;;;;;;;;;;;18.10;99.90;;;;;;5116042;28;19908;-68
2021/09/08 06:11:04;;;;;;;;;;;18.20;99.90;;;;;;5116110;28;19979;-69
2021/09/08 06:13:31;;;;;;;;;;;18.10;99.90;;;;;;5115429;28;19927;-68
2021/09/08 06:15:57;;;;;;;;;;;18.00;99.90;;;;;;5115747;28;19912;-69
2021/09/08 06:18:24;;;;;;;;;;;18.10;99.90;;;;;;5115618;28;19912;-69
2021/09/08 06:20:51;;;;;;;;;;;18.00;99.90;;;;;;5115697;28;20362;-70
2021/09/08 06:23:17;;;;;;;;;;;17.90;99.90;;;;;;5115622;28;19995;-68
2021/09/08 06:25:44;;;;;;;;;;;17.90;99.90;;;;;;5115382;28;19981;-68
2021/09/08 06:28:11;;;;;;;;;;;17.80;99.90;;;;;;5115612;28;19965;-69
2021/09/08 06:30:37;;;;;;;;;;;17.80;99.90;;;;;;5115654;28;20358;-68
2021/09/08 06:33:04;;;;;;;;;;;17.80;99.90;;;;;;5115138;28;19920;-68
2021/09/08 06:35:31;;;;;;;;;;;17.70;99.90;;;;;;5115178;28;19950;-69
2021/09/08 06:37:57;;;;;;;;;;;17.80;99.90;;;;;;5115435;28;19922;-68
2021/09/08 06:40:24;;;;;;;;;;;17.70;99.90;;;;;;5115148;28;19915;-69
2021/09/08 06:42:51;;;;;;;;;;;17.60;99.90;;;;;;5115329;28;19914;-68
2021/09/08 06:45:18;;;;;;;;;;;17.60;99.90;;;;;;5115079;28;19914;-70
2021/09/08 06:47:44;;;;;;;;;;;17.60;99.90;;;;;;5114995;28;20018;-70
2021/09/08 06:50:11;;;;;;;;;;;17.60;99.90;;;;;;5115341;28;19937;-69
2021/09/08 06:52:38;;;;;;;;;;;17.50;99.90;;;;;;5112143;28;20381;-68
2021/09/08 06:55:05;;;;;;;;;;;17.50;99.90;;;;;;5112962;28;20316;-69
2021/09/08 06:57:31;;;;;;;;;;;17.40;99.90;;;;;;5112662;28;19912;-70
2021/09/08 06:59:58;;;;;;;;;;;17.40;99.90;;;;;;5112869;28;20354;-69
2021/09/08 07:02:25;;;;;;;;;;;17.40;99.90;;;;;;5112757;28;19956;-69
2021/09/08 07:04:52;;;;;;;;;;;17.30;99.90;;;;;;5112377;28;19923;-70
2021/09/08 07:07:20;;;;;;;;;;;17.30;99.90;;;;;;5111756;28;19946;-71
2021/09/08 07:09:47;;;;;;;;;;;17.30;99.90;;;;;;5112039;28;20370;-70
2021/09/08 07:12:14;;;;;;;;;;;17.30;99.90;;;;;;5112483;28;19916;-69
2021/09/08 07:14:40;;;;;;;;;;;17.30;99.90;;;;;;5112575;28;19908;-70
2021/09/08 07:17:07;;;;;;;;;;;17.30;99.90;;;;;;5112255;28;19911;-70
2021/09/08 07:19:34;;;;;;;;;;;17.20;99.90;;;;;;5112026;28;19912;-69
2021/09/08 07:22:01;;;;;;;;;;;17.20;99.90;;;;;;5112339;28;19918;-69
2021/09/08 07:24:27;;;;;;;;;;;17.10;99.90;;;;;;5112475;28;19996;-69
2021/09/08 07:26:57;;;;;;;;;;;17.10;99.90;;;;;;5112390;28;19979;-69
2021/09/08 07:29:24;;;;;;;;;;;17.10;99.90;;;;;;5112437;28;19922;-69
2021/09/08 07:31:52;;;;;;;;;;;17.10;99.90;;;;;;5111756;28;19908;-69
2021/09/08 07:34:18;;;;;;;;;;;17.00;99.90;;;;;;5112087;28;20006;-69
2021/09/08 07:36:45;;;;;;;;;;;17.00;99.90;;;;;;5112129;28;19957;-69
2021/09/08 07:39:12;;;;;;;;;;;16.90;99.90;;;;;;5112211;28;19915;-69
2021/09/08 07:41:38;;;;;;;;;;;16.90;99.90;;;;;;5111768;28;19907;-69
2021/09/08 07:44:05;;;;;;;;;;;16.90;99.90;;;;;;5111787;28;19908;-69
2021/09/08 07:46:32;;;;;;;;;;;16.80;99.90;;;;;;5111902;28;19928;-69
2021/09/08 07:48:58;;;;;;;;;;;16.80;99.90;;;;;;5111836;28;19919;-69
2021/09/08 07:51:25;;;;;;;;;;;16.80;99.90;;;;;;5111916;28;19912;-70
2021/09/08 07:53:51;;;;;;;;;;;16.70;99.90;;;;;;5111529;28;20014;-70
2021/09/08 07:56:19;;;;;;;;;;;16.70;99.90;;;;;;5111507;28;20564;-70
2021/09/08 07:58:46;;;;;;;;;;;16.60;99.90;;;;;;5111924;28;20247;-69
2021/09/08 08:01:12;;;;;;;;;;;16.60;99.90;;;;;;5111652;28;20354;-70
2021/09/08 08:03:39;;;;;;;;;;;16.60;99.90;;;;;;5107811;28;19936;-69
2021/09/08 08:06:06;;;;;;;;;;;16.60;99.90;;;;;;5071151;28;19915;-69
2021/09/08 08:08:32;;;;;;;;;;;16.60;99.90;;;;;;5070737;28;20171;-70
2021/09/08 08:10:59;;;;;;;;;;;16.50;99.90;;;;;;5071079;28;20315;-69
2021/09/08 08:13:27;;;;;;;;;;;16.50;99.90;;;;;;5070604;28;20015;-69
2021/09/08 08:15:53;;;;;;;;;;;16.50;99.90;;;;;;5070326;28;20363;-68
2021/09/08 08:18:20;;;;;;;;;;;16.40;99.90;;;;;;5070087;28;19916;-69
2021/09/08 08:20:47;;;;;;;;;;;16.40;99.90;;;;;;5069933;28;20457;-69
2021/09/08 08:23:13;;;;;;;;;;;16.40;99.90;;;;;;5070676;28;19908;-69
2021/09/08 08:25:40;;;;;;;;;;;16.40;99.90;;;;;;5069192;28;20031;-69
2021/09/08 08:28:07;;;;;;;;;;;16.40;99.90;;;;;;5070627;28;20390;-69
2021/09/08 08:30:34;;;;;;;;;;;16.30;99.90;;;;;;5070501;28;20390;-69
2021/09/08 08:33:01;;;;;;;;;;;16.30;99.90;;;;;;5070480;28;19923;-69
2021/09/08 08:35:28;;;;;;;;;;;16.30;99.90;;;;;;5070626;28;19909;-69
2021/09/08 08:37:55;;;;;;;;;;;16.30;99.90;;;;;;5070294;28;19913;-69
2021/09/08 08:40:22;;;;;;;;;;;16.30;99.90;;;;;;5070392;28;19916;-68
2021/09/08 08:42:48;;;;;;;;;;;16.20;99.90;;;;;;5070047;28;20050;-69
2021/09/08 08:45:15;;;;;;;;;;;16.20;99.90;;;;;;5070397;28;20009;-69
2021/09/08 08:47:42;;;;;;;;;;;16.20;99.90;;;;;;5069819;28;20007;-69
2021/09/08 08:50:11;;;;;;;;;;;16.20;99.90;;;;;;5070407;28;19919;-69
2021/09/08 08:52:38;;;;;;;;;;;16.20;99.90;;;;;;5070275;28;20011;-68
2021/09/08 08:55:05;;;;;;;;;;;16.10;99.90;;;;;;5070372;28;19908;-69
2021/09/08 08:57:32;;;;;;;;;;;16.10;99.90;;;;;;5069694;28;19912;-69
2021/09/08 08:59:58;;;;;;;;;;;16.10;99.90;;;;;;5102685;28;19978;-69
2021/09/08 09:02:27;;;;;;;;;;;16.10;99.90;;;;;;5070032;28;20010;-68
2021/09/08 09:04:55;;;;;;;;;;;16.00;99.90;;;;;;5070508;28;20322;-69
2021/09/08 09:07:29;;;;;;;;;;;16.10;99.90;;;;;;5072334;28;20029;-69
2021/09/08 09:10:00;;;;;;;;;;;16.10;99.90;;;;;;5072197;28;20363;-69
2021/09/08 09:12:35;;;;;;;;;;;16.00;99.90;;;;;;5071807;28;20267;-69
2021/09/08 09:15:09;;;;;;;;;;;16.10;99.90;;;;;;5071808;28;19913;-69
2021/09/08 09:17:36;;;;;;;;;;;16.10;99.90;;;;;;5071752;28;19908;-68
2021/09/08 09:20:07;;;;;;;;;;;16.10;99.90;;;;;;5072033;28;20004;-68
2021/09/08 09:22:42;;;;;;;;;;;16.00;99.90;;;;;;5072126;28;19915;-68
2021/09/08 09:25:10;;;;;;;;;;;16.00;99.90;;;;;;5070719;28;19962;-67
2021/09/08 09:27:38;;;;;;;;;;;16.00;99.90;;;;;;5071910;28;19909;-68
2021/09/08 09:30:09;;;;;;;;;;;16.00;99.90;;;;;;5071306;28;19914;-69
2021/09/08 09:32:40;;;;;;;;;;;16.00;99.90;;;;;;5074818;28;19999;-69
2021/09/08 09:35:08;;;;;;;;;;;16.00;99.90;;;;;;5075883;28;19917;-69
2021/09/08 09:37:35;;;;;;;;;;;16.00;99.90;;;;;;5075533;28;19955;-68
2021/09/08 09:40:03;;;;;;;;;;;15.90;99.90;;;;;;5075620;28;19912;-69
2021/09/08 09:42:32;;;;;;;;;;;15.90;99.90;;;;;;5075772;28;19915;-69
2021/09/08 09:45:00;;;;;;;;;;;15.90;99.90;;;;;;5075287;28;20379;-70
2021/09/08 09:47:27;;;;;;;;;;;15.90;99.90;;;;;;5075255;28;20279;-69
2021/09/08 09:49:57;;;;;;;;;;;15.90;99.90;;;;;;5075432;28;19913;-69
2021/09/08 09:52:26;;;;;;;;;;;15.90;99.90;;;;;;5075334;28;19913;-69
2021/09/08 09:54:53;;;;;;;;;;;15.80;99.90;;;;;;5075477;28;20437;-69
2021/09/08 09:57:21;;;;;;;;;;;15.90;99.90;;;;;;5075445;28;19950;-69
2021/09/08 09:59:48;;;;;;;;;;;15.90;99.90;;;;;;5074733;28;19962;-69
2021/09/08 10:02:15;;;;;;;;;;;15.90;99.90;;;;;;5075558;28;19915;-69
2021/09/08 10:04:41;;;;;;;;;;;15.80;99.90;;;;;;5075219;28;19916;-69
2021/09/08 10:07:08;;;;;;;;;;;15.80;99.90;;;;;;5075344;28;20377;-69
2021/09/08 10:09:36;;;;;;;;;;;15.80;99.90;;;;;;5075223;28;19908;-69
2021/09/08 10:12:04;;;;;;;;;;;15.80;99.90;;;;;;5075152;28;19916;-69
2021/09/08 10:14:31;;;;;;;;;;;15.80;99.90;;;;;;5074520;28;19943;-69
2021/09/08 10:17:02;;;;;;;;;;;15.80;99.90;;;;;;5075434;28;20367;-69
2021/09/08 10:19:29;;;;;;;;;;;15.80;99.90;;;;;;5075092;28;20315;-69
2021/09/08 10:22:05;;;;;;;;;;;15.80;99.90;;;;;;5075079;28;19998;-69
2021/09/08 10:24:31;;;;;;;;;;;15.80;99.90;;;;;;5075049;28;19954;-69
2021/09/08 10:26:58;;;;;;;;;;;15.80;99.90;;;;;;5074922;28;19940;-69
2021/09/08 10:29:28;;;;;;;;;;;15.70;99.90;;;;;;5074412;28;19941;-69
2021/09/08 10:31:57;;;;;;;;;;;15.70;99.90;;;;;;5074816;28;20287;-69
2021/09/08 10:34:23;;;;;;;;;;;15.70;99.90;;;;;;5074837;28;19908;-69
2021/09/08 10:36:51;;;;;;;;;;;15.70;99.90;;;;;;5074702;28;19908;-69
2021/09/08 10:39:18;;;;;;;;;;;15.70;99.90;;;;;;5074592;28;19916;-70
2021/09/08 10:41:49;;;;;;;;;;;15.70;99.90;;;;;;5074484;28;19962;-70
2021/09/08 10:44:18;;;;;;;;;;;15.70;99.90;;;;;;5073066;28;19916;-70
2021/09/08 10:46:49;;;;;;;;;;;15.70;99.90;;;;;;5072823;28;20272;-70
2021/09/08 10:49:34;;;;;;;;;;;15.60;99.90;;;;;;5073194;28;19909;-69
2021/09/08 10:52:01;;;;;;;;;;;15.60;99.90;;;;;;5074436;28;19952;-69
2021/09/08 10:54:27;;;;;;;;;;;15.60;99.90;;;;;;5074726;28;20402;-69
2021/09/08 10:56:54;;;;;;;;;;;15.60;99.90;;;;;;5074200;28;19909;-70
2021/09/08 10:59:21;;;;;;;;;;;15.60;99.90;;;;;;5073653;28;19916;-69
2021/09/08 11:01:52;;;;;;;;;;;15.60;99.90;;;;;;5074056;28;19909;-69
2021/09/08 11:04:19;;;;;;;;;;;15.60;99.90;;;;;;5074254;28;19931;-69
2021/09/08 11:06:49;;;;;;;;;;;15.50;99.90;;;;;;5074248;28;19909;-69
2021/09/08 11:09:17;;;;;;;;;;;15.50;99.90;;;;;;5074096;28;20012;-68
2021/09/08 11:11:50;;;;;;;;;;;15.50;99.90;;;;;;5073825;28;20355;-69
2021/09/08 11:14:16;;;;;;;;;;;15.50;99.90;;;;;;5073463;28;19935;-69
2021/09/08 11:16:43;;;;;;;;;;;15.50;99.90;;;;;;5073770;28;19908;-69
2021/09/08 11:19:12;;;;;;;;;;;15.50;99.90;;;;;;5073985;28;19979;-69
2021/09/08 11:21:39;;;;;;;;;;;15.50;99.90;;;;;;5073714;28;19919;-69
2021/09/08 11:24:08;;;;;;;;;;;15.50;99.90;;;;;;5074004;28;19920;-69
2021/09/08 11:26:36;;;;;;;;;;;15.40;99.90;;;;;;5074053;28;20327;-69
2021/09/08 11:29:08;;;;;;;;;;;15.50;99.90;;;;;;5073232;28;19909;-69
2021/09/08 11:31:38;;;;;;;;;;;15.40;99.90;;;;;;5073877;28;19916;-70
2021/09/08 11:34:16;;;;;;;;;;;15.40;99.90;;;;;;5074391;28;19916;-69
2021/09/08 11:36:43;;;;;;;;;;;15.40;99.90;;;;;;5074006;28;19928;-69
2021/09/08 11:39:14;;;;;;;;;;;15.40;99.90;;;;;;5073913;28;19908;-69
2021/09/08 11:41:52;;;;;;;;;;;15.40;99.90;;;;;;5072337;28;19910;-69
2021/09/08 11:44:18;;;;;;;;;;;15.30;99.90;;;;;;5074821;28;19909;-69
2021/09/08 11:46:45;;;;;;;;;;;15.40;99.90;;;;;;5073423;28;20015;-70
2021/09/08 11:49:12;;;;;;;;;;;15.30;99.90;;;;;;5074336;28;20293;-68
2021/09/08 11:51:39;;;;;;;;;;;15.30;99.90;;;;;;5073237;28;19920;-70
2021/09/08 11:54:08;;;;;;;;;;;15.30;99.90;;;;;;5073344;28;19966;-70
2021/09/08 11:56:39;;;;;;;;;;;15.20;99.90;;;;;;5072332;28;20363;-70
2021/09/08 11:59:06;;;;;;;;;;;15.20;99.90;;;;;;5073396;28;19908;-69
2021/09/08 12:01:39;;;;;;;;;;;15.20;99.90;;;;;;5072717;28;20014;-69
2021/09/08 12:04:08;;;;;;;;;;;15.20;99.90;;;;;;5073278;28;19984;-70
2021/09/08 12:06:35;;;;;;;;;;;15.20;99.90;;;;;;5073031;28;19915;-69
2021/09/08 12:09:24;;;;;;;;;;;15.20;99.90;;;;;;5073068;28;19917;-69
2021/09/08 12:12:09;;;;;;;;;;;15.20;99.90;;;;;;5105394;28;20023;-70
2021/09/08 12:14:37;;;;;;;;;;;15.10;99.90;;;;;;5072992;28;19923;-70
2021/09/08 12:17:13;;;;;;;;;;;15.10;99.90;;;;;;5072874;28;19954;-69
2021/09/08 12:19:47;;;;;;;;;;;15.10;99.90;;;;;;5072959;28;19908;-69
2021/09/08 12:22:21;;;;;;;;;;;15.00;99.90;;;;;;5071572;28;19908;-69
2021/09/08 12:24:52;;;;;;;;;;;15.00;99.90;;;;;;5072861;28;19908;-69
2021/09/08 12:27:26;;;;;;;;;;;15.00;99.90;;;;;;5072832;28;19909;-69
2021/09/08 12:29:54;;;;;;;;;;;15.00;99.90;;;;;;5072705;28;19908;-69
2021/09/08 12:32:21;;;;;;;;;;;15.00;99.90;;;;;;5072438;28;19958;-69
2021/09/08 12:34:48;;;;;;;;;;;15.00;99.90;;;;;;5072748;28;19912;-69
2021/09/08 12:37:15;;;;;;;;;;;14.90;99.90;;;;;;5072702;28;19908;-69
2021/09/08 12:39:44;;;;;;;;;;;14.90;99.90;;;;;;5072465;28;19913;-70
2021/09/08 12:42:17;;;;;;;;;;;14.90;99.90;;;;;;5072687;28;20406;-69
2021/09/08 12:44:43;;;;;;;;;;;14.90;99.90;;;;;;5072790;28;19940;-69
2021/09/08 12:47:14;;;;;;;;;;;14.90;99.90;;;;;;5072111;28;20011;-69
2021/09/08 12:49:41;;;;;;;;;;;14.90;99.90;;;;;;5072345;28;19909;-69
2021/09/08 12:52:09;;;;;;;;;;;14.90;99.90;;;;;;5072359;28;19908;-69
2021/09/08 12:54:36;;;;;;;;;;;14.90;99.90;;;;;;5072355;28;19916;-69
2021/09/08 12:57:04;;;;;;;;;;;14.80;99.90;;;;;;5072266;28;19952;-69
2021/09/08 12:59:32;;;;;;;;;;;14.80;99.90;;;;;;5072169;28;19987;-68
2021/09/08 13:01:59;;;;;;;;;;;14.80;99.90;;;;;;5072215;28;19998;-70
2021/09/08 13:04:26;;;;;;;;;;;14.70;99.90;;;;;;5072346;28;19912;-69
2021/09/08 13:06:53;;;;;;;;;;;14.70;99.90;;;;;;5104547;28;20019;-69
2021/09/08 13:09:19;;;;;;;;;;;14.70;99.90;;;;;;5072467;28;19991;-70
2021/09/08 13:11:47;;;;;;;;;;;14.70;99.90;;;;;;5072048;28;19908;-70
2021/09/08 13:14:15;;;;;;;;;;;14.60;99.90;;;;;;5072200;28;19928;-70
2021/09/08 13:16:42;;;;;;;;;;;14.60;99.90;;;;;;5072115;28;19920;-70
2021/09/08 13:19:09;;;;;;;;;;;14.50;99.90;;;;;;5072258;28;20324;-70
2021/09/08 13:21:36;;;;;;;;;;;14.50;99.90;;;;;;5071980;28;19908;-70
2021/09/08 13:24:04;;;;;;;;;;;14.50;99.90;;;;;;5072079;28;19913;-70
2021/09/08 13:26:31;;;;;;;;;;;14.50;99.90;;;;;;5072081;28;19915;-70
2021/09/08 13:28:57;;;;;;;;;;;14.50;99.90;;;;;;5072064;28;20007;-70
2021/09/08 13:31:29;;;;;;;;;;;14.50;99.90;;;;;;5104632;28;19909;-70
2021/09/08 13:33:56;;;;;;;;;;;14.50;99.90;;;;;;5072123;28;19917;-70
2021/09/08 13:36:22;;;;;;;;;;;14.50;99.90;;;;;;5071945;28;20294;-70
2021/09/08 13:38:49;;;;;;;;;;;14.50;99.90;;;;;;5072011;28;19913;-70
2021/09/08 13:41:16;;;;;;;;;;;14.50;99.90;;;;;;5071742;28;19915;-70
2021/09/08 13:43:43;;;;;;;;;;;14.50;99.90;;;;;;5071834;28;19909;-70
2021/09/08 13:46:10;;;;;;;;;;;14.50;99.90;;;;;;5071648;28;19924;-69
2021/09/08 13:48:37;;;;;;;;;;;14.40;99.90;;;;;;5071978;28;20360;-70
2021/09/08 13:51:04;;;;;;;;;;;14.40;99.90;;;;;;5071971;28;19908;-69
2021/09/08 13:53:31;;;;;;;;;;;14.30;99.90;;;;;;5071754;28;19916;-69
2021/09/08 13:55:58;;;;;;;;;;;14.30;99.90;;;;;;5072081;28;19908;-70
2021/09/08 13:58:25;;;;;;;;;;;14.30;99.90;;;;;;5071910;28;19909;-69
2021/09/08 14:00:52;;;;;;;;;;;14.30;99.90;;;;;;5071782;28;20271;-69
2021/09/08 14:03:18;;;;;;;;;;;14.20;99.90;;;;;;5071857;28;19909;-69
2021/09/08 14:05:45;;;;;;;;;;;14.10;99.90;;;;;;5071579;28;19979;-69
2021/09/08 14:08:18;;;;;;;;;;;14.20;99.90;;;;;;5071745;28;20054;-69
2021/09/08 14:10:46;;;;;;;;;;;14.20;99.90;;;;;;5071755;28;19943;-69
2021/09/08 14:13:13;;;;;;;;;;;14.30;99.90;;;;;;5071580;28;19982;-69
2021/09/08 14:15:43;;;;;;;;;;;14.30;99.90;;;;;;5071429;28;19920;-69
2021/09/08 14:18:10;;;;;;;;;;;14.30;99.90;;;;;;5072239;28;19956;-69